createdAt,value
2018-08-24T00:00:04.812Z,18.98
2018-08-24T00:02:31.581Z,18.95
2018-08-24T00:04:59.713Z,19.00
2018-08-24T00:07:26.203Z,19.03
2018-08-24T00:09:53.370Z,19.01
2018-08-24T00:12:22.193Z,18.96
2018-08-24T00:14:49.476Z,18.99
2018-08-24T00:17:17.090Z,19.05
2018-08-24T00:19:43.553Z,19.00
2018-08-24T00:22:10.391Z,18.98
2018-08-24T00:24:36.937Z,18.91
2018-08-24T00:27:03.515Z,18.83
2018-08-24T00:29:30.303Z,18.77
2018-08-24T00:31:56.803Z,18.74
2018-08-24T00:34:23.311Z,18.80
2018-08-24T00:36:49.797Z,18.82
2018-08-24T00:39:16.773Z,18.82
2018-08-24T00:41:43.255Z,18.82
2018-08-24T00:44:09.718Z,18.82
2018-08-24T00:46:36.497Z,18.80
2018-08-24T00:49:02.987Z,18.80
2018-08-24T00:51:29.537Z,18.86
2018-08-24T00:53:56.422Z,18.87
2018-08-24T00:56:22.910Z,18.88
2018-08-24T00:58:50.035Z,18.91
2018-08-24T01:01:17.090Z,18.91
2018-08-24T01:03:44.007Z,18.90
2018-08-24T01:06:10.501Z,18.88
2018-08-24T01:08:37.832Z,18.88
2018-08-24T01:11:04.740Z,18.90
2018-08-24T01:13:31.224Z,18.87
2018-08-24T01:15:57.722Z,18.78
2018-08-24T01:18:24.190Z,18.58
2018-08-24T01:20:50.959Z,18.41
2018-08-24T01:23:17.436Z,18.21
2018-08-24T01:25:43.913Z,18.00
2018-08-24T01:28:10.673Z,17.88
2018-08-24T01:30:37.138Z,17.72
2018-08-24T01:33:04.771Z,17.50
2018-08-24T01:35:31.269Z,17.11
2018-08-24T01:37:58.009Z,16.90
2018-08-24T01:40:24.457Z,16.76
2018-08-24T01:42:50.959Z,16.66
2018-08-24T01:45:18.404Z,16.62
2018-08-24T01:47:44.905Z,16.56
2018-08-24T01:50:11.413Z,16.53
2018-08-24T01:52:37.867Z,16.53
2018-08-24T01:55:04.670Z,16.50
2018-08-24T01:57:31.146Z,16.49
2018-08-24T01:59:57.613Z,16.50
2018-08-24T02:02:24.218Z,16.46
2018-08-24T02:04:51.868Z,16.47
2018-08-24T02:07:18.570Z,16.49
2018-08-24T02:09:45.871Z,16.50
2018-08-24T02:12:12.347Z,16.53
2018-08-24T02:14:39.115Z,16.50
2018-08-24T02:17:05.579Z,16.52
2018-08-24T02:19:32.066Z,16.51
2018-08-24T02:21:58.819Z,16.54
2018-08-24T02:24:25.265Z,16.53
2018-08-24T02:26:51.729Z,16.52
2018-08-24T02:29:18.539Z,16.56
2018-08-24T02:31:45.019Z,16.57
2018-08-24T02:34:11.504Z,16.56
2018-08-24T02:36:37.999Z,16.56
2018-08-24T02:39:04.790Z,16.56
2018-08-24T02:41:31.251Z,16.56
2018-08-24T02:43:57.738Z,16.59
2018-08-24T02:46:24.194Z,16.57
2018-08-24T02:48:50.981Z,16.55
2018-08-24T02:51:17.485Z,16.54
2018-08-24T02:53:43.984Z,16.54
2018-08-24T02:56:10.739Z,16.53
2018-08-24T02:58:37.551Z,16.47
2018-08-24T03:01:04.015Z,16.44
2018-08-24T03:03:30.485Z,16.45
2018-08-24T03:05:57.249Z,16.44
2018-08-24T03:08:23.850Z,16.44
2018-08-24T03:10:50.303Z,16.37
2018-08-24T03:13:17.069Z,16.36
2018-08-24T03:15:43.526Z,16.33
2018-08-24T03:18:10.053Z,16.33
2018-08-24T03:20:36.561Z,16.30
2018-08-24T03:23:03.309Z,16.25
2018-08-24T03:25:29.955Z,16.19
2018-08-24T03:27:56.437Z,16.11
2018-08-24T03:30:22.899Z,16.02
2018-08-24T03:32:50.158Z,15.97
2018-08-24T03:35:16.716Z,15.89
2018-08-24T03:37:43.210Z,15.84
2018-08-24T03:40:10.085Z,15.80
2018-08-24T03:42:36.590Z,15.73
2018-08-24T03:45:03.076Z,15.64
2018-08-24T03:47:30.115Z,15.60
2018-08-24T03:49:56.586Z,15.53
2018-08-24T03:52:23.053Z,15.49
2018-08-24T03:54:50.460Z,15.48
2018-08-24T03:57:16.933Z,15.51
2018-08-24T03:59:43.432Z,15.51
2018-08-24T04:02:09.930Z,15.49
2018-08-24T04:04:37.698Z,15.46
2018-08-24T04:07:04.161Z,15.47
2018-08-24T04:09:30.616Z,15.47
2018-08-24T04:11:57.092Z,15.44
2018-08-24T04:14:23.850Z,15.42
2018-08-24T04:16:50.748Z,15.41
2018-08-24T04:19:17.310Z,15.51
2018-08-24T04:21:43.862Z,15.52
2018-08-24T04:24:10.659Z,15.47
2018-08-24T04:26:37.158Z,15.38
2018-08-24T04:29:03.614Z,15.37
2018-08-24T04:31:30.416Z,15.41
2018-08-24T04:33:56.881Z,15.48
2018-08-24T04:36:23.358Z,15.54
2018-08-24T04:38:50.129Z,15.56
2018-08-24T04:41:16.681Z,15.60
2018-08-24T04:43:43.169Z,15.63
2018-08-24T04:46:09.913Z,15.69
2018-08-24T04:48:36.397Z,15.72
2018-08-24T04:51:02.890Z,15.76
2018-08-24T04:53:29.726Z,15.73
2018-08-24T04:55:56.191Z,15.75
2018-08-24T04:58:22.780Z,15.80
2018-08-24T05:00:49.525Z,15.81
2018-08-24T05:03:16.034Z,15.81
2018-08-24T05:05:42.574Z,15.79
2018-08-24T05:08:09.305Z,15.80
2018-08-24T05:10:35.818Z,15.80
2018-08-24T05:13:02.281Z,15.85
2018-08-24T05:15:29.038Z,15.85
2018-08-24T05:17:55.504Z,15.89
2018-08-24T05:20:24.110Z,15.89
2018-08-24T05:22:51.002Z,15.91
2018-08-24T05:25:17.495Z,16.01
2018-08-24T05:27:44.850Z,16.02
2018-08-24T05:30:11.589Z,16.01
2018-08-24T05:32:38.087Z,15.94
2018-08-24T05:35:04.666Z,15.90
2018-08-24T05:37:31.728Z,15.91
2018-08-24T05:39:58.277Z,15.84
2018-08-24T05:42:24.785Z,15.82
2018-08-24T05:44:51.631Z,15.83
2018-08-24T05:47:18.133Z,15.78
2018-08-24T05:49:44.625Z,15.77
2018-08-24T05:52:11.425Z,15.79
2018-08-24T05:54:37.930Z,15.85
2018-08-24T05:57:04.422Z,15.82
2018-08-24T05:59:31.182Z,15.82
2018-08-24T06:01:58.663Z,15.75
2018-08-24T06:04:25.173Z,15.77
2018-08-24T06:06:51.950Z,15.83
2018-08-24T06:09:18.437Z,15.88
2018-08-24T06:11:44.911Z,15.93
2018-08-24T06:14:12.615Z,15.96
2018-08-24T06:16:39.081Z,15.94
2018-08-24T06:19:06.540Z,16.03
2018-08-24T06:21:33.360Z,16.05
2018-08-24T06:23:59.861Z,16.14
2018-08-24T06:26:26.344Z,16.19
2018-08-24T06:28:53.113Z,16.17
2018-08-24T06:31:19.625Z,16.16
2018-08-24T06:33:46.135Z,16.20
2018-08-24T06:36:12.905Z,16.23
2018-08-24T06:38:39.365Z,16.23
2018-08-24T06:41:05.830Z,16.18
2018-08-24T06:43:32.588Z,16.17
2018-08-24T06:46:00.943Z,16.15
2018-08-24T06:48:27.418Z,16.12
2018-08-24T06:50:54.260Z,16.13
2018-08-24T06:53:20.899Z,16.18
2018-08-24T06:55:47.339Z,16.18
2018-08-24T06:58:15.169Z,16.22
2018-08-24T07:00:41.710Z,16.17
2018-08-24T07:03:08.699Z,16.14
2018-08-24T07:05:36.195Z,16.14
2018-08-24T07:08:02.789Z,16.22
2018-08-24T07:10:29.249Z,16.26
2018-08-24T07:12:56.088Z,16.32
2018-08-24T07:15:22.630Z,16.43
2018-08-24T07:17:49.132Z,16.59
2018-08-24T07:20:15.893Z,16.64
2018-08-24T07:22:42.362Z,16.77
2018-08-24T07:25:08.847Z,16.97
2018-08-24T07:27:36.495Z,16.79
2018-08-24T07:30:03.048Z,16.83
2018-08-24T07:32:29.565Z,16.93
2018-08-24T07:34:56.367Z,16.91
2018-08-24T07:37:23.915Z,17.04
2018-08-24T07:39:50.394Z,17.14
2018-08-24T07:42:16.900Z,17.18
2018-08-24T07:44:43.410Z,17.15
2018-08-24T07:47:10.227Z,17.16
2018-08-24T07:49:36.719Z,17.08
2018-08-24T07:52:03.265Z,17.01
2018-08-24T07:54:30.054Z,16.94
2018-08-24T07:56:56.589Z,17.03
2018-08-24T07:59:24.822Z,17.03
2018-08-24T08:01:52.263Z,17.02
2018-08-24T08:04:18.811Z,17.09
2018-08-24T08:06:45.303Z,17.09
2018-08-24T08:09:13.572Z,17.08
2018-08-24T08:11:41.517Z,17.22
2018-08-24T08:14:08.302Z,17.13
2018-08-24T08:16:39.731Z,17.09
2018-08-24T08:19:07.429Z,17.10
2018-08-24T08:21:33.972Z,17.02
2018-08-24T08:24:00.788Z,16.90
2018-08-24T08:26:27.283Z,16.88
2018-08-24T08:28:53.797Z,16.97
2018-08-24T08:31:20.568Z,17.03
2018-08-24T08:33:48.053Z,17.09
2018-08-24T08:36:14.577Z,16.98
2018-08-24T08:38:41.317Z,17.05
2018-08-24T08:41:07.820Z,17.03
2018-08-24T08:43:34.315Z,17.05
2018-08-24T08:46:03.254Z,17.05
2018-08-24T08:48:29.794Z,17.06
2018-08-24T08:50:56.244Z,16.93
2018-08-24T08:53:23.067Z,16.75
2018-08-24T08:55:49.578Z,16.65
2018-08-24T08:58:16.132Z,16.64
2018-08-24T09:00:42.928Z,16.59
2018-08-24T09:03:09.387Z,16.46
2018-08-24T09:05:37.065Z,16.26
2018-08-24T09:08:04.620Z,15.74
2018-08-24T09:10:31.090Z,15.36
2018-08-24T09:12:57.690Z,15.14
2018-08-24T09:15:25.063Z,14.88
2018-08-24T09:17:51.555Z,14.81
2018-08-24T09:20:18.066Z,14.79
2018-08-24T09:22:47.877Z,14.76
2018-08-24T09:25:14.387Z,14.73
2018-08-24T09:27:40.856Z,14.70
2018-08-24T09:30:08.451Z,14.65
2018-08-24T09:32:35.070Z,14.72
2018-08-24T09:35:01.523Z,14.74
2018-08-24T09:37:29.239Z,14.80
2018-08-24T09:39:55.709Z,14.97
2018-08-24T09:42:22.373Z,15.10
2018-08-24T09:44:50.143Z,15.03
2018-08-24T09:47:16.645Z,15.01
2018-08-24T09:56:38.047Z,14.95
2018-08-24T09:59:04.990Z,14.97
2018-08-24T10:01:31.464Z,14.98
2018-08-24T10:03:58.094Z,15.18
2018-08-24T10:06:24.997Z,15.43
2018-08-24T10:08:51.480Z,15.69
2018-08-24T10:11:18.009Z,15.79
2018-08-24T10:13:46.054Z,15.87
2018-08-24T10:16:12.567Z,15.93
2018-08-24T10:18:39.140Z,15.97
2018-08-24T10:21:05.914Z,16.31
2018-08-24T10:23:33.657Z,16.81
2018-08-24T10:26:00.699Z,16.92
2018-08-24T10:28:27.506Z,16.98
2018-08-24T10:30:55.133Z,17.34
2018-08-24T10:33:21.635Z,17.26
2018-08-24T10:35:49.628Z,17.55
2018-08-24T10:38:17.038Z,17.44
2018-08-24T10:40:43.516Z,17.13
2018-08-24T10:43:11.301Z,17.14
2018-08-24T10:45:37.797Z,17.30
2018-08-24T10:48:04.289Z,17.38
2018-08-24T10:50:32.336Z,17.61
2018-08-24T10:53:06.161Z,17.73
2018-08-24T10:55:49.830Z,17.90
2018-08-24T10:58:16.453Z,17.84
2018-08-24T11:00:42.987Z,17.93
2018-08-24T11:03:09.830Z,18.16
2018-08-24T11:05:36.423Z,18.02
2018-08-24T11:08:03.139Z,17.90
2018-08-24T11:10:30.793Z,17.70
2018-08-24T11:12:57.324Z,17.89
2018-08-24T11:15:23.865Z,17.85
2018-08-24T11:17:50.785Z,18.07
2018-08-24T11:20:17.914Z,18.44
2018-08-24T11:22:44.466Z,18.60
2018-08-24T11:25:12.125Z,18.91
2018-08-24T11:27:38.591Z,19.08
2018-08-24T11:30:05.330Z,18.87
2018-08-24T11:35:10.898Z,18.44
2018-08-24T11:37:37.824Z,18.52
2018-08-24T11:40:04.462Z,18.85
2018-08-24T11:42:31.538Z,19.10
2018-08-24T11:44:58.302Z,18.93
2018-08-24T11:47:24.851Z,18.71
2018-08-24T11:49:51.910Z,18.67
2018-08-24T11:52:18.736Z,18.61
2018-08-24T11:54:47.297Z,18.88
2018-08-24T11:57:13.765Z,19.02
2018-08-24T11:59:41.294Z,18.92
2018-08-24T12:02:07.905Z,19.18
2018-08-24T12:04:34.504Z,19.38
2018-08-24T12:07:01.393Z,19.50
2018-08-24T12:09:29.967Z,19.67
2018-08-24T12:14:30.744Z,20.27
2018-08-24T12:22:08.716Z,19.37
2018-08-24T12:27:08.197Z,18.84
2018-08-24T12:29:35.050Z,18.72
2018-08-24T12:32:06.148Z,18.60
2018-08-24T12:34:36.854Z,18.49
2018-08-24T12:37:04.179Z,18.49
2018-08-24T12:39:32.382Z,18.43
2018-08-24T12:42:05.725Z,18.61
2018-08-24T12:44:33.068Z,18.80
2018-08-24T12:49:36.774Z,18.88
2018-08-24T12:52:05.132Z,19.16
2018-08-24T12:57:11.701Z,19.33
2018-08-24T12:59:39.956Z,20.13
2018-08-24T13:02:08.674Z,20.38
2018-08-24T13:04:37.302Z,20.60
2018-08-24T13:07:03.801Z,20.51
2018-08-24T13:09:30.432Z,20.45
2018-08-24T13:12:01.677Z,20.50
2018-08-24T13:19:33.839Z,20.41
2018-08-24T13:22:04.499Z,20.63
2018-08-24T13:24:31.739Z,20.73
2018-08-24T13:26:59.378Z,20.59
2018-08-24T13:29:26.745Z,20.91
2018-08-24T13:31:57.237Z,20.61
2018-08-24T13:34:25.557Z,20.58
2018-08-24T13:36:53.381Z,20.09
2018-08-24T13:39:19.999Z,20.47
2018-08-24T13:41:48.529Z,20.53
2018-08-24T13:44:15.795Z,20.14
2018-08-24T13:49:17.505Z,20.26
2018-08-24T13:51:45.745Z,19.94
2018-08-24T13:54:12.998Z,19.91
2018-08-24T13:56:39.920Z,19.89
2018-08-24T13:59:06.686Z,20.02
2018-08-24T14:01:33.726Z,19.61
2018-08-24T14:04:02.402Z,19.49
2018-08-24T14:06:29.046Z,19.59
2018-08-24T14:08:55.585Z,19.94
2018-08-24T14:13:54.729Z,19.93
2018-08-24T14:16:21.899Z,20.07
2018-08-24T14:21:23.390Z,20.10
2018-08-24T14:23:53.492Z,20.16
2018-08-24T14:26:24.843Z,19.85
2018-08-24T14:28:51.338Z,19.90
2018-08-24T14:31:18.176Z,19.62
2018-08-24T14:33:51.770Z,19.72
2018-08-24T14:36:22.666Z,20.00
2018-08-24T14:38:51.394Z,19.98
2018-08-24T14:41:20.589Z,20.06
2018-08-24T14:43:47.457Z,20.15
2018-08-24T14:46:14.513Z,19.93
2018-08-24T14:48:42.618Z,20.06
2018-08-24T14:51:09.286Z,20.13
2018-08-24T14:53:36.074Z,20.37
2018-08-24T14:56:03.533Z,20.36
2018-08-24T14:58:32.210Z,20.57
2018-08-24T15:01:00.314Z,20.21
2018-08-24T15:03:29.119Z,20.23
2018-08-24T15:05:56.701Z,20.39
2018-08-24T15:08:23.622Z,20.36
2018-08-24T15:10:50.252Z,20.43
2018-08-24T15:13:17.524Z,20.24
2018-08-24T15:15:46.033Z,20.02
2018-08-24T15:18:12.679Z,20.13
2018-08-24T15:20:40.212Z,20.06
2018-08-24T15:23:07.373Z,20.13
2018-08-24T15:25:33.961Z,20.03
2018-08-24T15:28:00.414Z,19.62
2018-08-24T15:30:28.034Z,19.40
2018-08-24T15:32:54.527Z,19.33
2018-08-24T15:35:21.509Z,19.24
2018-08-24T15:37:48.476Z,19.19
2018-08-24T15:40:15.423Z,19.13
2018-08-24T15:42:42.070Z,18.96
2018-08-24T15:45:09.077Z,19.00
2018-08-24T15:47:35.751Z,19.00
2018-08-24T15:50:02.249Z,18.95
2018-08-24T15:52:29.325Z,18.89
2018-08-24T15:54:55.789Z,18.74
2018-08-24T15:57:22.280Z,18.79
2018-08-24T15:59:49.137Z,18.86
2018-08-24T16:02:15.632Z,18.83
2018-08-24T16:07:15.397Z,18.65
2018-08-24T16:09:43.992Z,18.61
2018-08-24T16:12:10.703Z,18.49
2018-08-24T16:14:37.699Z,18.48
2018-08-24T16:17:04.624Z,18.38
2018-08-24T16:19:31.256Z,18.32
2018-08-24T16:21:59.141Z,18.26
2018-08-24T16:24:25.695Z,18.19
2018-08-24T16:26:52.243Z,18.19
2018-08-24T16:29:19.227Z,18.18
2018-08-24T16:31:45.727Z,18.20
2018-08-24T16:34:12.213Z,18.14
2018-08-24T16:36:39.332Z,18.07
2018-08-24T16:39:05.799Z,18.09
2018-08-24T16:41:32.278Z,17.97
2018-08-24T16:43:59.502Z,18.01
2018-08-24T16:46:25.983Z,17.97
2018-08-24T16:48:57.252Z,17.98
2018-08-24T16:51:26.197Z,17.89
2018-08-24T16:53:52.971Z,17.82
2018-08-24T16:56:19.984Z,17.81
2018-08-24T16:58:47.652Z,17.81
2018-08-24T17:01:16.009Z,17.69
2018-08-24T17:03:43.565Z,17.74
2018-08-24T17:06:19.067Z,17.67
2018-08-24T17:08:47.663Z,17.54
2018-08-24T17:11:21.482Z,17.53
2018-08-24T17:13:49.766Z,17.46
2018-08-24T17:16:16.620Z,17.47
2018-08-24T17:18:43.576Z,17.41
2018-08-24T17:21:10.118Z,17.32
2018-08-24T17:23:36.784Z,17.25
2018-08-24T17:26:04.220Z,17.18
2018-08-24T17:28:30.840Z,17.16
2018-08-24T17:30:58.666Z,17.13
2018-08-24T17:33:26.987Z,17.08
2018-08-24T17:35:54.640Z,17.05
2018-08-24T17:38:25.685Z,16.96
2018-08-24T17:58:32.982Z,16.69
2018-08-24T18:01:00.519Z,16.67
2018-08-24T18:03:28.365Z,16.62
2018-08-24T18:05:55.905Z,16.61
2018-08-24T18:08:22.600Z,16.63
2018-08-24T18:10:49.441Z,16.59
2018-08-24T18:13:15.999Z,16.53
2018-08-24T18:15:42.616Z,16.49
2018-08-24T18:18:09.419Z,16.46
2018-08-24T18:20:36.016Z,16.45
2018-08-24T18:23:02.573Z,16.40
2018-08-24T18:25:29.371Z,16.35
2018-08-24T18:27:56.695Z,16.37
2018-08-24T18:30:30.202Z,16.32
2018-08-24T18:32:57.430Z,16.25
2018-08-24T18:35:23.895Z,16.20
2018-08-24T18:37:50.391Z,16.16
2018-08-24T18:40:18.250Z,16.13
2018-08-24T18:42:46.853Z,16.11
2018-08-24T18:45:14.768Z,16.10
2018-08-24T18:47:44.586Z,16.04
2018-08-24T18:50:12.248Z,15.94
2018-08-24T18:52:38.704Z,15.88
2018-08-24T18:55:05.632Z,15.79
2018-08-24T18:57:32.189Z,15.77
2018-08-24T18:59:58.662Z,15.69
2018-08-24T19:02:25.645Z,15.62
2018-08-24T19:04:52.517Z,15.61
2018-08-24T19:07:20.237Z,15.64
2018-08-24T19:09:47.399Z,15.62
2018-08-24T19:12:14.049Z,15.53
2018-08-24T19:14:41.588Z,15.48
2018-08-24T19:17:09.345Z,15.44
2018-08-24T19:19:35.811Z,15.43
2018-08-24T19:22:05.546Z,15.38
2018-08-24T19:24:32.371Z,15.32
2018-08-24T19:26:58.898Z,15.22
2018-08-24T19:29:25.451Z,15.19
2018-08-24T19:31:53.528Z,15.21
2018-08-24T19:34:20.191Z,15.18
2018-08-24T19:36:47.293Z,15.15
2018-08-24T19:39:14.248Z,15.15
2018-08-24T19:41:42.240Z,15.14
2018-08-24T19:44:09.641Z,15.15
2018-08-24T19:46:39.098Z,15.15
2018-08-24T19:49:05.718Z,15.16
2018-08-24T19:51:32.203Z,15.11
2018-08-24T19:53:58.987Z,15.09
2018-08-24T19:56:25.502Z,15.09
2018-08-24T19:58:52.033Z,15.12
2018-08-24T20:01:18.810Z,15.07
2018-08-24T20:03:45.313Z,15.03
2018-08-24T20:06:12.562Z,14.92
2018-08-24T20:08:39.313Z,14.90
2018-08-24T20:11:05.824Z,14.87
2018-08-24T20:13:32.363Z,14.84
2018-08-24T20:16:01.116Z,14.83
2018-08-24T20:18:27.629Z,14.88
2018-08-24T20:20:54.338Z,14.86
2018-08-24T20:23:22.059Z,14.86
2018-08-24T20:25:48.514Z,14.92
2018-08-24T20:28:16.692Z,14.94
2018-08-24T20:30:45.305Z,14.92
2018-08-24T20:33:11.778Z,14.90
2018-08-24T20:35:38.241Z,14.89
2018-08-24T20:38:04.984Z,14.87
2018-08-24T20:40:31.477Z,14.87
2018-08-24T20:42:57.936Z,14.89
2018-08-24T20:45:25.380Z,14.90
2018-08-24T20:47:51.863Z,14.87
2018-08-24T20:50:18.351Z,14.84
2018-08-24T20:52:45.250Z,14.81
2018-08-24T20:55:12.527Z,14.80
2018-08-24T20:57:40.657Z,14.77
2018-08-24T21:00:07.568Z,14.77
2018-08-24T21:02:34.100Z,14.73
2018-08-24T21:05:00.563Z,14.70
2018-08-24T21:07:29.015Z,14.62
2018-08-24T21:09:56.055Z,14.59
2018-08-24T21:12:22.600Z,14.51
2018-08-24T21:14:49.667Z,14.40
2018-08-24T21:17:16.141Z,14.23
2018-08-24T21:19:42.630Z,14.16
2018-08-24T21:22:09.638Z,14.02
2018-08-24T21:24:40.443Z,13.95
2018-08-24T21:27:07.138Z,13.81
2018-08-24T21:29:33.974Z,13.60
2018-08-24T21:32:00.616Z,13.38
2018-08-24T21:34:27.150Z,13.29
2018-08-24T21:36:53.921Z,13.25
2018-08-24T21:39:21.384Z,13.25
2018-08-24T21:41:47.904Z,13.21
2018-08-24T21:44:14.693Z,13.17
2018-08-24T21:46:41.170Z,13.25
2018-08-24T21:49:07.618Z,13.25
2018-08-24T21:51:34.397Z,13.34
2018-08-24T21:54:00.880Z,13.50
2018-08-24T21:56:27.358Z,13.71
2018-08-24T21:58:54.198Z,13.95
2018-08-24T22:01:20.677Z,14.15
2018-08-24T22:03:47.129Z,14.22
2018-08-24T22:06:13.911Z,14.25
2018-08-24T22:08:40.396Z,14.24
2018-08-24T22:11:06.877Z,14.33
2018-08-24T22:13:33.678Z,14.30
2018-08-24T22:16:00.122Z,14.35
2018-08-24T22:18:26.595Z,14.42
2018-08-24T22:20:54.183Z,14.42
2018-08-24T22:23:20.641Z,14.43
2018-08-24T22:25:47.255Z,14.39
2018-08-24T22:28:14.052Z,14.46
2018-08-24T22:30:42.506Z,14.48
2018-08-24T22:33:10.858Z,14.51
2018-08-24T22:35:38.864Z,14.48
2018-08-24T22:38:10.209Z,14.50
2018-08-24T22:40:58.706Z,14.58
2018-08-24T22:43:25.550Z,14.62
2018-08-24T22:45:52.048Z,14.64
2018-08-24T22:48:19.118Z,14.60
2018-08-24T22:50:45.598Z,14.57
2018-08-24T22:53:12.084Z,14.54
2018-08-24T22:55:38.837Z,14.54
2018-08-24T22:58:06.342Z,14.56
2018-08-24T23:00:32.800Z,14.58
2018-08-24T23:02:59.273Z,14.56
2018-08-24T23:05:26.041Z,14.53
2018-08-24T23:07:53.146Z,14.59
2018-08-24T23:10:21.981Z,14.61
2018-08-24T23:19:43.659Z,14.63
2018-08-24T23:22:10.082Z,14.64
2018-08-24T23:24:37.690Z,14.66
2018-08-24T23:27:06.814Z,14.68
2018-08-24T23:29:33.423Z,14.65
2018-08-24T23:31:59.896Z,14.63
2018-08-24T23:34:26.889Z,14.60
2018-08-24T23:36:53.357Z,14.55
2018-08-24T23:39:19.839Z,14.53
2018-08-24T23:41:49.679Z,14.52
2018-08-24T23:44:16.726Z,14.48
2018-08-24T23:46:43.206Z,14.49
2018-08-24T23:49:09.960Z,14.48
2018-08-24T23:51:36.410Z,14.50
2018-08-24T23:54:03.849Z,14.46
2018-08-24T23:56:30.318Z,14.46
2018-08-24T23:58:57.121Z,14.42
